createdAt,value
2018-07-01T13:34:16.803Z,4.63
2018-07-01T13:36:47.061Z,4.70
2018-07-01T13:39:17.333Z,5.30
2018-07-01T13:41:47.588Z,5.30
2018-07-01T13:44:17.973Z,5.37
2018-07-01T13:46:48.130Z,5.07
2018-07-01T13:49:18.601Z,4.90
2018-07-01T13:51:49.048Z,5.10
2018-07-01T13:54:19.380Z,4.83
2018-07-01T13:56:49.665Z,5.13
2018-07-01T13:59:20.178Z,4.87
2018-07-01T14:01:50.529Z,5.40
2018-07-01T14:04:20.813Z,5.27
2018-07-01T14:06:51.090Z,4.70
2018-07-01T14:09:21.491Z,4.80
2018-07-01T14:11:51.812Z,5.10
2018-07-01T14:14:22.307Z,5.00
2018-07-01T14:16:53.587Z,4.40
2018-07-01T14:19:23.912Z,5.80
2018-07-01T14:21:54.219Z,4.67
2018-07-01T14:24:24.587Z,5.07
2018-07-01T14:26:57.588Z,5.33
2018-07-01T14:29:27.961Z,5.00
2018-07-01T14:31:58.906Z,4.57
2018-07-01T14:34:30.779Z,4.03
2018-07-01T14:37:01.617Z,4.87
2018-07-01T14:39:32.651Z,4.70
2018-07-01T14:42:03.090Z,4.73
2018-07-01T14:44:33.419Z,5.03
2018-07-01T14:47:03.734Z,5.13
2018-07-01T14:49:34.018Z,4.67
2018-07-01T14:52:05.424Z,4.60
2018-07-01T14:54:35.742Z,4.90
2018-07-01T14:57:06.014Z,5.13
2018-07-01T14:59:36.374Z,4.70
2018-07-01T15:02:06.672Z,5.17
2018-07-01T15:04:37.084Z,5.03
2018-07-01T15:07:07.263Z,5.27
2018-07-01T15:09:37.672Z,4.57
2018-07-01T15:12:07.981Z,4.40
2018-07-01T15:14:38.230Z,4.50
2018-07-01T15:17:08.445Z,5.03
2018-07-01T15:19:38.862Z,5.27
2018-07-01T15:22:09.289Z,4.77
2018-07-01T15:24:39.589Z,5.30
2018-07-01T15:27:10.054Z,5.17
2018-07-01T15:29:40.256Z,4.93
2018-07-01T15:32:10.636Z,4.67
2018-07-01T15:34:40.985Z,4.87
2018-07-01T15:37:11.920Z,4.97
2018-07-01T15:39:42.263Z,5.53
2018-07-01T15:42:12.702Z,5.17
2018-07-01T15:44:42.989Z,4.40
2018-07-01T15:47:14.180Z,5.13
2018-07-01T15:49:45.234Z,5.00
2018-07-01T15:52:15.632Z,5.80
2018-07-01T15:54:46.621Z,5.63
2018-07-01T15:57:16.966Z,5.40
2018-07-01T15:59:47.341Z,5.33
2018-07-01T16:02:17.664Z,4.73
2018-07-01T16:04:48.027Z,5.30
2018-07-01T16:07:18.273Z,4.90
2018-07-01T16:09:48.596Z,6.53
2018-07-01T16:12:18.951Z,6.97
2018-07-01T16:14:49.290Z,6.40
2018-07-01T16:17:19.555Z,6.50
2018-07-01T16:19:49.792Z,5.23
2018-07-01T16:22:20.128Z,5.70
2018-07-01T16:24:55.747Z,6.20
2018-07-01T16:27:32.415Z,7.03
2018-07-01T16:30:05.499Z,5.43
2018-07-01T16:32:36.741Z,5.20
2018-07-01T16:35:07.732Z,5.80
2018-07-01T16:37:37.860Z,6.00
2018-07-01T16:40:08.577Z,5.50
2018-07-01T16:42:38.862Z,5.43
2018-07-01T16:45:09.339Z,6.07
2018-07-01T16:47:40.294Z,5.80
2018-07-01T16:50:10.611Z,5.27
2018-07-01T16:52:41.006Z,5.73
2018-07-01T16:55:11.278Z,6.63
2018-07-01T16:57:41.595Z,5.27
2018-07-01T17:00:11.870Z,4.90
2018-07-01T17:02:41.984Z,8.97
2018-07-01T17:05:12.345Z,5.57
2018-07-01T17:07:42.732Z,5.47
2018-07-01T17:10:13.188Z,5.63
2018-07-01T17:12:43.496Z,4.80
2018-07-01T17:15:13.812Z,4.70
2018-07-01T17:17:44.077Z,5.37
2018-07-01T17:20:14.460Z,5.67
2018-07-01T17:22:44.832Z,5.10
2018-07-01T17:25:15.104Z,4.50
2018-07-01T17:27:45.426Z,5.57
2018-07-01T17:30:15.690Z,5.07
2018-07-01T17:32:51.178Z,5.03
2018-07-01T17:35:21.496Z,5.23
2018-07-01T17:37:51.810Z,4.63
2018-07-01T17:40:22.116Z,5.23
2018-07-01T17:42:54.289Z,5.40
2018-07-01T17:45:24.532Z,5.37
2018-07-01T17:47:54.884Z,4.30
2018-07-01T17:50:25.259Z,4.67
2018-07-01T17:52:55.618Z,5.30
2018-07-01T17:55:26.097Z,5.10
2018-07-01T17:57:56.357Z,5.43
2018-07-01T18:00:26.745Z,5.00
2018-07-01T18:02:57.225Z,5.00
2018-07-01T18:05:27.624Z,6.00
2018-07-01T18:07:57.975Z,5.33
2018-07-01T18:10:28.909Z,5.40
2018-07-01T18:12:59.315Z,5.33
2018-07-01T18:15:29.766Z,4.83
2018-07-01T18:18:00.247Z,5.07
2018-07-01T18:20:30.801Z,5.10
2018-07-01T18:23:27.405Z,4.97
2018-07-01T18:25:31.613Z,4.47
2018-07-01T18:28:15.021Z,4.83
2018-07-01T18:30:32.175Z,4.90
2018-07-01T18:33:02.526Z,5.07
2018-07-01T18:35:32.976Z,4.57
2018-07-01T18:38:03.252Z,4.33
2018-07-01T18:40:33.708Z,4.90
2018-07-01T18:43:04.033Z,5.57
2018-07-01T18:45:34.376Z,5.20
2018-07-01T18:48:05.004Z,5.83
2018-07-01T18:50:35.481Z,5.60
2018-07-01T18:53:05.838Z,6.47
2018-07-01T18:55:36.244Z,5.87
2018-07-01T18:58:06.716Z,8.83
2018-07-01T19:00:36.974Z,7.23
2018-07-01T19:03:07.322Z,7.17
2018-07-01T19:05:37.526Z,7.63
2018-07-01T19:08:08.080Z,8.53
2018-07-01T19:10:38.421Z,7.73
2018-07-01T19:13:08.553Z,8.07
2018-07-01T19:15:38.827Z,8.23
2018-07-01T19:18:09.185Z,8.07
2018-07-01T19:20:39.618Z,7.37
2018-07-01T19:23:09.820Z,7.93
2018-07-01T19:25:40.061Z,8.07
2018-07-01T19:28:10.369Z,8.50
2018-07-01T19:30:40.893Z,9.03
2018-07-01T19:33:11.266Z,10.70
2018-07-01T19:35:41.620Z,7.00
2018-07-01T19:38:11.926Z,5.80
2018-07-01T19:40:42.358Z,5.27
2018-07-01T19:43:13.828Z,4.70
2018-07-01T19:45:44.290Z,5.00
2018-07-01T19:48:14.840Z,6.43
2018-07-01T19:50:45.405Z,6.00
2018-07-01T19:53:15.748Z,5.47
2018-07-01T19:55:46.122Z,5.13
2018-07-01T19:58:16.884Z,5.87
2018-07-01T20:00:47.239Z,5.10
2018-07-01T20:03:17.533Z,5.03
2018-07-01T20:05:47.880Z,5.23
2018-07-01T20:08:18.276Z,5.50
2018-07-01T20:10:48.604Z,4.87
2018-07-01T20:13:19.050Z,6.60
2018-07-01T20:15:49.454Z,6.90
2018-07-01T20:18:19.757Z,7.60
2018-07-01T20:20:50.097Z,7.50
2018-07-01T20:23:20.422Z,8.20
2018-07-01T20:25:50.640Z,6.77
2018-07-01T20:28:20.908Z,9.70
2018-07-01T20:30:51.293Z,4.97
2018-07-01T20:33:21.845Z,5.00
2018-07-01T20:35:53.157Z,5.43
2018-07-01T20:38:23.444Z,5.07
2018-07-01T20:40:53.916Z,5.47
2018-07-01T20:43:24.634Z,5.13
2018-07-01T20:45:55.070Z,5.23
2018-07-01T20:48:26.063Z,5.07
2018-07-01T20:50:56.339Z,4.77
2018-07-01T20:53:26.698Z,6.17
2018-07-01T20:55:57.295Z,6.60
2018-07-01T20:58:28.297Z,8.23
2018-07-01T21:01:00.376Z,5.20
2018-07-01T21:03:30.567Z,6.93
2018-07-01T21:06:01.161Z,6.93
2018-07-01T21:08:35.372Z,9.13
2018-07-01T21:11:06.242Z,9.17
2018-07-01T21:13:36.636Z,5.40
2018-07-01T21:16:07.537Z,8.03
2018-07-01T21:18:37.850Z,8.00
2018-07-01T21:21:08.437Z,9.03
2018-07-01T21:23:40.719Z,8.87
2018-07-01T21:26:11.275Z,9.87
2018-07-01T21:28:43.717Z,9.10
2018-07-01T21:31:14.622Z,9.03
2018-07-01T21:33:45.247Z,8.73
2018-07-01T21:36:15.547Z,9.10
2018-07-01T21:38:45.980Z,9.37
2018-07-01T21:41:16.370Z,8.37
2018-07-01T21:43:47.427Z,9.60
2018-07-01T21:46:17.800Z,8.50
2018-07-01T21:48:48.209Z,9.30
2018-07-01T21:51:18.659Z,9.40
2018-07-01T21:53:49.063Z,8.93
2018-07-01T21:56:19.349Z,8.57
2018-07-01T21:58:49.722Z,8.23
2018-07-01T22:01:20.258Z,7.57
2018-07-01T22:03:50.668Z,8.07
2018-07-01T22:06:21.086Z,7.50
2018-07-01T22:08:51.520Z,6.90
2018-07-01T22:11:47.809Z,7.30
2018-07-01T22:14:26.485Z,7.17
2018-07-01T22:16:57.063Z,7.90
2018-07-01T22:19:27.370Z,7.27
2018-07-01T22:21:58.222Z,7.27
2018-07-01T22:24:30.542Z,7.17
2018-07-01T22:27:00.952Z,6.93
2018-07-01T22:29:31.597Z,7.33
2018-07-01T22:32:02.541Z,6.67
2018-07-01T22:34:32.956Z,6.90
2018-07-01T22:37:03.395Z,7.67
2018-07-01T22:39:33.583Z,7.27
2018-07-01T22:42:04.212Z,7.77
2018-07-01T22:44:34.482Z,7.27
2018-07-01T22:47:05.466Z,7.30
2018-07-01T22:49:35.809Z,7.10
2018-07-01T22:52:06.338Z,8.93
2018-07-01T22:54:36.551Z,9.23
2018-07-01T22:57:07.312Z,7.63
2018-07-01T22:59:37.619Z,6.70
2018-07-01T23:03:17.025Z,6.80
2018-07-01T23:05:47.075Z,7.13
2018-07-01T23:08:17.837Z,7.50
2018-07-01T23:10:48.269Z,9.00
2018-07-01T23:13:18.690Z,6.80
2018-07-01T23:15:49.046Z,7.03
2018-07-01T23:18:19.409Z,7.50
2018-07-01T23:20:49.841Z,7.00
2018-07-01T23:23:20.169Z,7.77
2018-07-01T23:25:50.409Z,7.47
2018-07-01T23:28:21.106Z,7.23
2018-07-01T23:30:51.517Z,6.40
2018-07-01T23:33:22.108Z,6.90
2018-07-01T23:35:52.384Z,6.10
2018-07-01T23:38:22.758Z,6.90
2018-07-01T23:40:53.058Z,6.20
2018-07-01T23:43:23.537Z,5.97
2018-07-01T23:45:53.878Z,6.70
2018-07-01T23:48:25.147Z,6.80
2018-07-01T23:50:55.668Z,6.30
2018-07-01T23:53:26.664Z,6.67
2018-07-01T23:55:58.095Z,6.80
2018-07-01T23:58:29.103Z,6.47
